sensor_id;sensor_type;location;lat;lon;timestamp;temperature;humidity
5621;DHT22;2832;50.864;12.186;2023-08-06T00:02:07;21.10;99.90
5621;DHT22;2832;50.864;12.186;2023-08-06T00:04:42;21.10;99.90
5621;DHT22;2832;50.864;12.186;2023-08-06T00:07:17;21.00;99.90
5621;DHT22;2832;50.864;12.186;2023-08-06T00:09:52;21.00;99.90
5621;DHT22;2832;50.864;12.186;2023-08-06T00:12:32;21.00;99.90
5621;DHT22;2832;50.864;12.186;2023-08-06T00:15:01;21.00;99.90
5621;DHT22;2832;50.864;12.186;2023-08-06T00:17:31;21.00;99.90
5621;DHT22;2832;50.864;12.186;2023-08-06T00:20:04;21.10;99.90
5621;DHT22;2832;50.864;12.186;2023-08-06T00:22:38;21.10;99.90
5621;DHT22;2832;50.864;12.186;2023-08-06T00:25:18;21.10;99.90
5621;DHT22;2832;50.864;12.186;2023-08-06T00:27:53;21.00;99.90
5621;DHT22;2832;50.864;12.186;2023-08-06T00:30:25;21.00;99.90
5621;DHT22;2832;50.864;12.186;2023-08-06T00:32:56;21.00;99.90
5621;DHT22;2832;50.864;12.186;2023-08-06T00:35:31;21.00;99.90
5621;DHT22;2832;50.864;12.186;2023-08-06T00:38:00;21.00;99.90
5621;DHT22;2832;50.864;12.186;2023-08-06T00:40:42;21.10;99.90
5621;DHT22;2832;50.864;12.186;2023-08-06T00:43:18;21.10;99.90
5621;DHT22;2832;50.864;12.186;2023-08-06T00:45:58;21.00;99.90
5621;DHT22;2832;50.864;12.186;2023-08-06T00:48:30;21.00;99.90
5621;DHT22;2832;50.864;12.186;2023-08-06T00:51:04;20.90;99.90
5621;DHT22;2832;50.864;12.186;2023-08-06T00:53:52;20.90;99.90
5621;DHT22;2832;50.864;12.186;2023-08-06T00:56:26;20.90;99.90
5621;DHT22;2832;50.864;12.186;2023-08-06T00:59:03;20.90;99.90
5621;DHT22;2832;50.864;12.186;2023-08-06T01:01:46;20.90;99.90
5621;DHT22;2832;50.864;12.186;2023-08-06T01:04:24;20.90;99.90
5621;DHT22;2832;50.864;12.186;2023-08-06T01:07:03;20.90;99.90
5621;DHT22;2832;50.864;12.186;2023-08-06T01:09:45;20.80;99.90
5621;DHT22;2832;50.864;12.186;2023-08-06T01:12:34;20.80;99.90
5621;DHT22;2832;50.864;12.186;2023-08-06T01:15:18;20.90;99.90
5621;DHT22;2832;50.864;12.186;2023-08-06T01:17:52;20.90;99.90
5621;DHT22;2832;50.864;12.186;2023-08-06T01:20:29;20.90;99.90
5621;DHT22;2832;50.864;12.186;2023-08-06T01:22:59;20.90;99.90
5621;DHT22;2832;50.864;12.186;2023-08-06T01:25:35;20.90;99.90
5621;DHT22;2832;50.864;12.186;2023-08-06T01:28:22;20.90;99.90
5621;DHT22;2832;50.864;12.186;2023-08-06T01:31:01;20.90;99.90
5621;DHT22;2832;50.864;12.186;2023-08-06T01:33:38;20.90;99.90
5621;DHT22;2832;50.864;12.186;2023-08-06T01:36:19;20.90;99.90
5621;DHT22;2832;50.864;12.186;2023-08-06T01:38:51;20.90;99.90
5621;DHT22;2832;50.864;12.186;2023-08-06T01:41:23;20.90;99.90
5621;DHT22;2832;50.864;12.186;2023-08-06T01:43:58;20.90;99.90
5621;DHT22;2832;50.864;12.186;2023-08-06T01:46:32;20.90;99.90
5621;DHT22;2832;50.864;12.186;2023-08-06T01:49:03;20.90;99.90
5621;DHT22;2832;50.864;12.186;2023-08-06T01:51:37;20.90;99.90
5621;DHT22;2832;50.864;12.186;2023-08-06T01:54:30;20.90;99.90
5621;DHT22;2832;50.864;12.186;2023-08-06T01:57:05;20.90;99.90
5621;DHT22;2832;50.864;12.186;2023-08-06T01:59:45;20.90;99.90
5621;DHT22;2832;50.864;12.186;2023-08-06T02:02:18;20.80;99.90
5621;DHT22;2832;50.864;12.186;2023-08-06T02:04:53;20.80;99.90
5621;DHT22;2832;50.864;12.186;2023-08-06T02:07:25;20.70;99.90
5621;DHT22;2832;50.864;12.186;2023-08-06T02:10:01;20.70;99.90
5621;DHT22;2832;50.864;12.186;2023-08-06T02:12:31;20.60;99.90
5621;DHT22;2832;50.864;12.186;2023-08-06T02:15:03;20.70;99.90
5621;DHT22;2832;50.864;12.186;2023-08-06T02:17:54;20.60;99.90
5621;DHT22;2832;50.864;12.186;2023-08-06T02:20:27;20.70;99.90
5621;DHT22;2832;50.864;12.186;2023-08-06T02:22:59;20.70;99.90
5621;DHT22;2832;50.864;12.186;2023-08-06T02:26:03;20.60;99.90
5621;DHT22;2832;50.864;12.186;2023-08-06T02:28:37;20.60;99.90
5621;DHT22;2832;50.864;12.186;2023-08-06T02:31:09;20.60;99.90
5621;DHT22;2832;50.864;12.186;2023-08-06T02:33:41;20.60;99.90
5621;DHT22;2832;50.864;12.186;2023-08-06T02:36:11;20.60;99.90
5621;DHT22;2832;50.864;12.186;2023-08-06T02:38:50;20.50;99.90
5621;DHT22;2832;50.864;12.186;2023-08-06T02:41:23;20.50;99.90
5621;DHT22;2832;50.864;12.186;2023-08-06T02:44:09;20.50;99.90
5621;DHT22;2832;50.864;12.186;2023-08-06T02:46:44;20.50;99.90
5621;DHT22;2832;50.864;12.186;2023-08-06T02:49:20;20.50;99.90
5621;DHT22;2832;50.864;12.186;2023-08-06T02:51:52;20.60;99.90
5621;DHT22;2832;50.864;12.186;2023-08-06T02:54:25;20.60;99.90
5621;DHT22;2832;50.864;12.186;2023-08-06T02:56:58;20.50;99.90
5621;DHT22;2832;50.864;12.186;2023-08-06T02:59:33;20.50;99.90
5621;DHT22;2832;50.864;12.186;2023-08-06T03:02:09;20.50;99.90
5621;DHT22;2832;50.864;12.186;2023-08-06T03:04:46;20.40;99.90
5621;DHT22;2832;50.864;12.186;2023-08-06T03:07:27;20.40;99.90
5621;DHT22;2832;50.864;12.186;2023-08-06T03:10:02;20.40;99.90
5621;DHT22;2832;50.864;12.186;2023-08-06T03:12:33;20.40;99.90
5621;DHT22;2832;50.864;12.186;2023-08-06T03:15:20;20.40;99.90
5621;DHT22;2832;50.864;12.186;2023-08-06T03:17:51;20.40;99.90
5621;DHT22;2832;50.864;12.186;2023-08-06T03:20:25;20.40;99.90
5621;DHT22;2832;50.864;12.186;2023-08-06T03:22:55;20.40;99.90
5621;DHT22;2832;50.864;12.186;2023-08-06T03:25:27;20.40;99.90
5621;DHT22;2832;50.864;12.186;2023-08-06T03:28:13;20.40;99.90
5621;DHT22;2832;50.864;12.186;2023-08-06T03:30:46;20.40;99.90
5621;DHT22;2832;50.864;12.186;2023-08-06T03:33:18;20.40;99.90
5621;DHT22;2832;50.864;12.186;2023-08-06T03:35:50;20.40;99.90
5621;DHT22;2832;50.864;12.186;2023-08-06T03:38:20;20.30;99.90
5621;DHT22;2832;50.864;12.186;2023-08-06T03:40:56;20.30;99.90
5621;DHT22;2832;50.864;12.186;2023-08-06T03:43:27;20.30;99.90
5621;DHT22;2832;50.864;12.186;2023-08-06T03:46:01;20.30;99.90
5621;DHT22;2832;50.864;12.186;2023-08-06T03:48:30;20.30;99.90
5621;DHT22;2832;50.864;12.186;2023-08-06T03:51:03;20.30;99.90
5621;DHT22;2832;50.864;12.186;2023-08-06T03:53:37;20.20;99.90
5621;DHT22;2832;50.864;12.186;2023-08-06T03:56:16;20.20;99.90
5621;DHT22;2832;50.864;12.186;2023-08-06T03:58:48;20.10;99.90
5621;DHT22;2832;50.864;12.186;2023-08-06T04:01:32;20.10;99.90
5621;DHT22;2832;50.864;12.186;2023-08-06T04:04:03;20.20;99.90
5621;DHT22;2832;50.864;12.186;2023-08-06T04:06:43;20.20;99.90
5621;DHT22;2832;50.864;12.186;2023-08-06T04:09:16;20.20;99.90
5621;DHT22;2832;50.864;12.186;2023-08-06T04:11:57;20.20;99.90
5621;DHT22;2832;50.864;12.186;2023-08-06T04:14:38;20.20;99.90
5621;DHT22;2832;50.864;12.186;2023-08-06T04:17:28;20.20;99.90
5621;DHT22;2832;50.864;12.186;2023-08-06T04:20:03;20.10;99.90
5621;DHT22;2832;50.864;12.186;2023-08-06T04:22:33;20.10;99.90
5621;DHT22;2832;50.864;12.186;2023-08-06T04:25:07;20.10;99.90
5621;DHT22;2832;50.864;12.186;2023-08-06T04:27:39;20.10;99.90
5621;DHT22;2832;50.864;12.186;2023-08-06T04:30:13;20.10;99.90
5621;DHT22;2832;50.864;12.186;2023-08-06T04:32:51;20.10;99.90
5621;DHT22;2832;50.864;12.186;2023-08-06T04:35:22;20.10;99.90
5621;DHT22;2832;50.864;12.186;2023-08-06T04:37:55;20.10;99.90
5621;DHT22;2832;50.864;12.186;2023-08-06T04:40:31;20.10;99.90
5621;DHT22;2832;50.864;12.186;2023-08-06T04:43:06;20.10;99.90
5621;DHT22;2832;50.864;12.186;2023-08-06T04:45:46;20.10;99.90
5621;DHT22;2832;50.864;12.186;2023-08-06T04:48:18;20.10;99.90
5621;DHT22;2832;50.864;12.186;2023-08-06T04:50:50;20.00;99.90
5621;DHT22;2832;50.864;12.186;2023-08-06T04:53:25;20.00;99.90
5621;DHT22;2832;50.864;12.186;2023-08-06T04:55:55;20.00;99.90
5621;DHT22;2832;50.864;12.186;2023-08-06T04:58:26;20.00;99.90
5621;DHT22;2832;50.864;12.186;2023-08-06T05:00:59;20.00;99.90
5621;DHT22;2832;50.864;12.186;2023-08-06T05:03:55;20.00;99.90
5621;DHT22;2832;50.864;12.186;2023-08-06T05:06:40;20.00;99.90
5621;DHT22;2832;50.864;12.186;2023-08-06T05:09:09;20.00;99.90
5621;DHT22;2832;50.864;12.186;2023-08-06T05:11:41;20.00;99.90
5621;DHT22;2832;50.864;12.186;2023-08-06T05:14:17;20.10;99.90
5621;DHT22;2832;50.864;12.186;2023-08-06T05:16:49;20.10;99.90
5621;DHT22;2832;50.864;12.186;2023-08-06T05:19:36;20.10;99.90
5621;DHT22;2832;50.864;12.186;2023-08-06T05:22:06;20.10;99.90
5621;DHT22;2832;50.864;12.186;2023-08-06T05:24:38;20.10;99.90
5621;DHT22;2832;50.864;12.186;2023-08-06T05:27:08;20.10;99.90
5621;DHT22;2832;50.864;12.186;2023-08-06T05:29:45;20.10;99.90
5621;DHT22;2832;50.864;12.186;2023-08-06T05:32:18;20.10;99.90
5621;DHT22;2832;50.864;12.186;2023-08-06T05:34:48;20.10;99.90
5621;DHT22;2832;50.864;12.186;2023-08-06T05:37:18;20.00;99.90
5621;DHT22;2832;50.864;12.186;2023-08-06T05:39:55;20.00;99.90
5621;DHT22;2832;50.864;12.186;2023-08-06T05:42:46;20.00;99.90
5621;DHT22;2832;50.864;12.186;2023-08-06T05:45:18;20.00;99.90
5621;DHT22;2832;50.864;12.186;2023-08-06T05:47:54;20.10;99.90
5621;DHT22;2832;50.864;12.186;2023-08-06T05:50:27;20.10;99.90
5621;DHT22;2832;50.864;12.186;2023-08-06T05:53:02;20.00;99.90
5621;DHT22;2832;50.864;12.186;2023-08-06T05:55:44;19.90;99.90
5621;DHT22;2832;50.864;12.186;2023-08-06T05:58:20;19.90;99.90
5621;DHT22;2832;50.864;12.186;2023-08-06T06:00:51;19.90;99.90
5621;DHT22;2832;50.864;12.186;2023-08-06T06:03:24;20.00;99.90
5621;DHT22;2832;50.864;12.186;2023-08-06T06:06:03;19.90;99.90
5621;DHT22;2832;50.864;12.186;2023-08-06T06:08:40;19.90;99.90
5621;DHT22;2832;50.864;12.186;2023-08-06T06:11:15;20.00;99.90
5621;DHT22;2832;50.864;12.186;2023-08-06T06:13:51;19.90;99.90
5621;DHT22;2832;50.864;12.186;2023-08-06T06:16:32;19.80;99.90
5621;DHT22;2832;50.864;12.186;2023-08-06T06:19:10;19.90;99.90
5621;DHT22;2832;50.864;12.186;2023-08-06T06:21:45;19.90;99.90
5621;DHT22;2832;50.864;12.186;2023-08-06T06:24:32;19.90;99.90
5621;DHT22;2832;50.864;12.186;2023-08-06T06:27:07;19.90;99.90
5621;DHT22;2832;50.864;12.186;2023-08-06T06:29:39;19.90;99.90
5621;DHT22;2832;50.864;12.186;2023-08-06T06:32:14;19.80;99.90
5621;DHT22;2832;50.864;12.186;2023-08-06T06:34:45;19.80;99.90
5621;DHT22;2832;50.864;12.186;2023-08-06T06:37:18;19.70;99.90
5621;DHT22;2832;50.864;12.186;2023-08-06T06:39:57;19.70;99.90
5621;DHT22;2832;50.864;12.186;2023-08-06T06:42:30;19.70;99.90
5621;DHT22;2832;50.864;12.186;2023-08-06T06:45:08;19.70;99.90
5621;DHT22;2832;50.864;12.186;2023-08-06T06:47:47;19.70;99.90
5621;DHT22;2832;50.864;12.186;2023-08-06T06:50:24;19.70;99.90
5621;DHT22;2832;50.864;12.186;2023-08-06T06:52:58;19.70;99.90
5621;DHT22;2832;50.864;12.186;2023-08-06T06:55:34;19.70;99.90
5621;DHT22;2832;50.864;12.186;2023-08-06T06:58:07;19.70;99.90
5621;DHT22;2832;50.864;12.186;2023-08-06T07:00:40;19.70;99.90
5621;DHT22;2832;50.864;12.186;2023-08-06T07:03:14;19.70;99.90
5621;DHT22;2832;50.864;12.186;2023-08-06T07:05:50;19.80;99.90
5621;DHT22;2832;50.864;12.186;2023-08-06T07:08:23;19.70;99.90
5621;DHT22;2832;50.864;12.186;2023-08-06T07:11:01;19.80;99.90
5621;DHT22;2832;50.864;12.186;2023-08-06T07:13:30;19.80;99.90
5621;DHT22;2832;50.864;12.186;2023-08-06T07:16:06;19.80;99.90
5621;DHT22;2832;50.864;12.186;2023-08-06T07:18:41;19.80;99.90
5621;DHT22;2832;50.864;12.186;2023-08-06T07:21:26;19.80;99.90
5621;DHT22;2832;50.864;12.186;2023-08-06T07:24:00;19.80;99.90
5621;DHT22;2832;50.864;12.186;2023-08-06T07:26:42;19.80;99.90
5621;DHT22;2832;50.864;12.186;2023-08-06T07:29:13;19.80;99.90
5621;DHT22;2832;50.864;12.186;2023-08-06T07:31:58;19.80;99.90
5621;DHT22;2832;50.864;12.186;2023-08-06T07:34:37;20.10;99.90
5621;DHT22;2832;50.864;12.186;2023-08-06T07:37:18;20.30;99.90
5621;DHT22;2832;50.864;12.186;2023-08-06T07:39:49;20.30;99.90
5621;DHT22;2832;50.864;12.186;2023-08-06T07:42:20;20.30;99.90
5621;DHT22;2832;50.864;12.186;2023-08-06T07:45:02;20.30;99.90
5621;DHT22;2832;50.864;12.186;2023-08-06T07:47:50;20.30;99.90
5621;DHT22;2832;50.864;12.186;2023-08-06T07:50:28;20.30;99.90
5621;DHT22;2832;50.864;12.186;2023-08-06T07:52:59;20.40;99.90
5621;DHT22;2832;50.864;12.186;2023-08-06T07:55:33;20.50;99.90
5621;DHT22;2832;50.864;12.186;2023-08-06T07:58:06;20.40;99.90
5621;DHT22;2832;50.864;12.186;2023-08-06T08:00:37;20.40;99.90
5621;DHT22;2832;50.864;12.186;2023-08-06T08:03:15;20.50;99.90
5621;DHT22;2832;50.864;12.186;2023-08-06T08:06:04;20.50;99.90
5621;DHT22;2832;50.864;12.186;2023-08-06T08:08:44;20.50;99.90
5621;DHT22;2832;50.864;12.186;2023-08-06T08:11:25;20.50;99.90
5621;DHT22;2832;50.864;12.186;2023-08-06T08:13:56;20.50;99.90
5621;DHT22;2832;50.864;12.186;2023-08-06T08:16:32;20.50;99.90
5621;DHT22;2832;50.864;12.186;2023-08-06T08:19:07;20.50;99.90
5621;DHT22;2832;50.864;12.186;2023-08-06T08:21:39;20.60;99.90
5621;DHT22;2832;50.864;12.186;2023-08-06T08:24:26;20.60;99.90
5621;DHT22;2832;50.864;12.186;2023-08-06T08:27:07;20.60;99.90
5621;DHT22;2832;50.864;12.186;2023-08-06T08:29:42;20.60;99.90
5621;DHT22;2832;50.864;12.186;2023-08-06T08:32:28;20.60;99.90
5621;DHT22;2832;50.864;12.186;2023-08-06T08:35:01;20.50;99.90
5621;DHT22;2832;50.864;12.186;2023-08-06T08:37:31;20.60;99.90
5621;DHT22;2832;50.864;12.186;2023-08-06T08:40:13;20.60;99.90
5621;DHT22;2832;50.864;12.186;2023-08-06T08:42:54;20.60;99.90
5621;DHT22;2832;50.864;12.186;2023-08-06T08:45:42;20.60;99.90
5621;DHT22;2832;50.864;12.186;2023-08-06T08:48:19;20.50;99.90
5621;DHT22;2832;50.864;12.186;2023-08-06T08:50:52;20.60;99.90
5621;DHT22;2832;50.864;12.186;2023-08-06T08:53:27;20.50;99.90
5621;DHT22;2832;50.864;12.186;2023-08-06T08:55:56;20.50;99.90
5621;DHT22;2832;50.864;12.186;2023-08-06T08:58:34;20.50;99.90
5621;DHT22;2832;50.864;12.186;2023-08-06T09:01:11;20.50;99.90
5621;DHT22;2832;50.864;12.186;2023-08-06T09:03:48;20.50;99.90
5621;DHT22;2832;50.864;12.186;2023-08-06T09:06:26;20.50;99.90
5621;DHT22;2832;50.864;12.186;2023-08-06T09:09:25;20.50;99.90
5621;DHT22;2832;50.864;12.186;2023-08-06T09:12:05;20.50;99.90
5621;DHT22;2832;50.864;12.186;2023-08-06T09:15:01;20.50;99.90
5621;DHT22;2832;50.864;12.186;2023-08-06T09:17:37;20.50;99.90
5621;DHT22;2832;50.864;12.186;2023-08-06T09:20:19;20.60;99.90
5621;DHT22;2832;50.864;12.186;2023-08-06T09:22:56;20.60;99.90
5621;DHT22;2832;50.864;12.186;2023-08-06T09:25:28;20.60;99.90
5621;DHT22;2832;50.864;12.186;2023-08-06T09:28:04;20.60;99.90
5621;DHT22;2832;50.864;12.186;2023-08-06T09:30:37;20.60;99.90
5621;DHT22;2832;50.864;12.186;2023-08-06T09:33:11;20.70;99.90
5621;DHT22;2832;50.864;12.186;2023-08-06T09:35:54;20.60;99.90
5621;DHT22;2832;50.864;12.186;2023-08-06T09:38:38;20.50;99.90
5621;DHT22;2832;50.864;12.186;2023-08-06T09:41:27;20.50;99.90
5621;DHT22;2832;50.864;12.186;2023-08-06T09:44:04;20.50;99.90
5621;DHT22;2832;50.864;12.186;2023-08-06T09:46:41;20.50;99.90
5621;DHT22;2832;50.864;12.186;2023-08-06T09:49:19;20.50;99.90
5621;DHT22;2832;50.864;12.186;2023-08-06T09:51:59;20.50;99.90
5621;DHT22;2832;50.864;12.186;2023-08-06T09:54:40;20.50;99.90
5621;DHT22;2832;50.864;12.186;2023-08-06T09:57:24;20.60;99.90
5621;DHT22;2832;50.864;12.186;2023-08-06T09:59:57;20.50;99.90
5621;DHT22;2832;50.864;12.186;2023-08-06T10:02:27;20.60;99.90
5621;DHT22;2832;50.864;12.186;2023-08-06T10:05:00;20.60;99.90
5621;DHT22;2832;50.864;12.186;2023-08-06T10:07:30;20.50;99.90
5621;DHT22;2832;50.864;12.186;2023-08-06T10:10:03;20.50;99.90
5621;DHT22;2832;50.864;12.186;2023-08-06T10:12:46;20.50;99.90
5621;DHT22;2832;50.864;12.186;2023-08-06T10:15:23;20.50;99.90
5621;DHT22;2832;50.864;12.186;2023-08-06T10:18:17;20.50;99.90
5621;DHT22;2832;50.864;12.186;2023-08-06T10:20:55;20.60;99.90
5621;DHT22;2832;50.864;12.186;2023-08-06T10:23:33;20.60;99.90
5621;DHT22;2832;50.864;12.186;2023-08-06T10:26:17;20.60;99.90
5621;DHT22;2832;50.864;12.186;2023-08-06T10:28:51;20.60;99.90
5621;DHT22;2832;50.864;12.186;2023-08-06T10:31:53;20.60;99.90
5621;DHT22;2832;50.864;12.186;2023-08-06T10:34:56;20.60;99.90
5621;DHT22;2832;50.864;12.186;2023-08-06T10:38:03;20.60;99.90
5621;DHT22;2832;50.864;12.186;2023-08-06T10:40:49;20.60;99.90
5621;DHT22;2832;50.864;12.186;2023-08-06T10:43:28;20.60;99.90
5621;DHT22;2832;50.864;12.186;2023-08-06T10:46:10;20.60;99.90
5621;DHT22;2832;50.864;12.186;2023-08-06T10:48:46;20.60;99.90
5621;DHT22;2832;50.864;12.186;2023-08-06T10:51:20;20.60;99.90
5621;DHT22;2832;50.864;12.186;2023-08-06T10:53:57;20.50;99.90
5621;DHT22;2832;50.864;12.186;2023-08-06T10:56:48;20.60;99.90
5621;DHT22;2832;50.864;12.186;2023-08-06T10:59:27;20.60;99.90
5621;DHT22;2832;50.864;12.186;2023-08-06T11:02:06;20.60;99.90
5621;DHT22;2832;50.864;12.186;2023-08-06T11:04:39;20.70;99.90
5621;DHT22;2832;50.864;12.186;2023-08-06T11:07:14;20.70;99.90
5621;DHT22;2832;50.864;12.186;2023-08-06T11:09:52;20.60;99.90
5621;DHT22;2832;50.864;12.186;2023-08-06T11:12:25;20.70;99.90
5621;DHT22;2832;50.864;12.186;2023-08-06T11:15:07;20.70;99.90
5621;DHT22;2832;50.864;12.186;2023-08-06T11:17:40;20.80;99.90
5621;DHT22;2832;50.864;12.186;2023-08-06T11:20:13;20.70;99.90
5621;DHT22;2832;50.864;12.186;2023-08-06T11:22:55;20.70;99.90
5621;DHT22;2832;50.864;12.186;2023-08-06T11:25:25;20.60;99.90
5621;DHT22;2832;50.864;12.186;2023-08-06T11:28:03;20.70;99.90
5621;DHT22;2832;50.864;12.186;2023-08-06T11:30:59;20.70;99.90
5621;DHT22;2832;50.864;12.186;2023-08-06T11:33:41;20.70;99.90
5621;DHT22;2832;50.864;12.186;2023-08-06T11:36:29;20.70;99.90
5621;DHT22;2832;50.864;12.186;2023-08-06T11:39:09;20.70;99.90
5621;DHT22;2832;50.864;12.186;2023-08-06T11:41:49;20.70;99.90
5621;DHT22;2832;50.864;12.186;2023-08-06T11:44:21;20.80;99.90
5621;DHT22;2832;50.864;12.186;2023-08-06T11:46:53;20.80;99.90
5621;DHT22;2832;50.864;12.186;2023-08-06T11:49:44;20.80;99.90
5621;DHT22;2832;50.864;12.186;2023-08-06T11:52:25;20.70;99.90
5621;DHT22;2832;50.864;12.186;2023-08-06T11:55:12;20.70;99.90
5621;DHT22;2832;50.864;12.186;2023-08-06T11:57:47;20.70;99.90
5621;DHT22;2832;50.864;12.186;2023-08-06T12:00:23;20.80;99.90
5621;DHT22;2832;50.864;12.186;2023-08-06T12:02:57;20.80;99.90
5621;DHT22;2832;50.864;12.186;2023-08-06T12:05:32;20.70;99.90
5621;DHT22;2832;50.864;12.186;2023-08-06T12:08:05;20.80;99.90
5621;DHT22;2832;50.864;12.186;2023-08-06T12:10:46;20.80;99.90
5621;DHT22;2832;50.864;12.186;2023-08-06T12:13:27;20.80;99.90
5621;DHT22;2832;50.864;12.186;2023-08-06T12:16:01;20.70;99.90
5621;DHT22;2832;50.864;12.186;2023-08-06T12:18:39;20.70;99.90
5621;DHT22;2832;50.864;12.186;2023-08-06T12:21:13;20.70;99.90
5621;DHT22;2832;50.864;12.186;2023-08-06T12:23:46;20.80;99.90
5621;DHT22;2832;50.864;12.186;2023-08-06T12:26:24;20.80;99.90
5621;DHT22;2832;50.864;12.186;2023-08-06T12:28:58;20.80;99.90
5621;DHT22;2832;50.864;12.186;2023-08-06T12:31:31;20.80;99.90
5621;DHT22;2832;50.864;12.186;2023-08-06T12:34:04;20.80;99.90
5621;DHT22;2832;50.864;12.186;2023-08-06T12:36:38;20.90;99.90
5621;DHT22;2832;50.864;12.186;2023-08-06T12:39:17;20.80;99.90
5621;DHT22;2832;50.864;12.186;2023-08-06T12:41:51;20.90;99.90
5621;DHT22;2832;50.864;12.186;2023-08-06T12:44:26;20.90;99.90
5621;DHT22;2832;50.864;12.186;2023-08-06T12:47:07;20.90;99.90
5621;DHT22;2832;50.864;12.186;2023-08-06T12:49:46;20.90;99.90
5621;DHT22;2832;50.864;12.186;2023-08-06T12:52:25;20.90;99.90
5621;DHT22;2832;50.864;12.186;2023-08-06T12:55:02;20.90;99.90
5621;DHT22;2832;50.864;12.186;2023-08-06T12:57:34;20.90;99.90
5621;DHT22;2832;50.864;12.186;2023-08-06T13:00:09;20.90;99.90
5621;DHT22;2832;50.864;12.186;2023-08-06T13:02:45;20.90;99.90
5621;DHT22;2832;50.864;12.186;2023-08-06T13:05:21;21.00;99.90
5621;DHT22;2832;50.864;12.186;2023-08-06T13:08:06;21.00;99.90
5621;DHT22;2832;50.864;12.186;2023-08-06T13:10:44;21.00;99.90
5621;DHT22;2832;50.864;12.186;2023-08-06T13:13:21;21.00;99.90
5621;DHT22;2832;50.864;12.186;2023-08-06T13:15:52;21.00;99.90
5621;DHT22;2832;50.864;12.186;2023-08-06T13:18:27;21.00;99.90
5621;DHT22;2832;50.864;12.186;2023-08-06T13:21:00;21.00;99.90
5621;DHT22;2832;50.864;12.186;2023-08-06T13:23:35;21.00;99.90
5621;DHT22;2832;50.864;12.186;2023-08-06T13:26:08;21.00;99.90
5621;DHT22;2832;50.864;12.186;2023-08-06T13:28:39;21.00;99.90
5621;DHT22;2832;50.864;12.186;2023-08-06T13:31:15;21.00;99.90
5621;DHT22;2832;50.864;12.186;2023-08-06T13:33:50;21.00;99.90
5621;DHT22;2832;50.864;12.186;2023-08-06T13:36:27;21.00;99.90
5621;DHT22;2832;50.864;12.186;2023-08-06T13:39:06;21.00;99.90
5621;DHT22;2832;50.864;12.186;2023-08-06T13:41:40;21.00;99.90
5621;DHT22;2832;50.864;12.186;2023-08-06T13:44:18;21.10;99.90
5621;DHT22;2832;50.864;12.186;2023-08-06T13:46:51;21.10;99.90
5621;DHT22;2832;50.864;12.186;2023-08-06T13:49:28;21.10;99.90
5621;DHT22;2832;50.864;12.186;2023-08-06T13:52:10;21.10;99.90
5621;DHT22;2832;50.864;12.186;2023-08-06T13:55:05;21.10;99.90
5621;DHT22;2832;50.864;12.186;2023-08-06T13:57:58;21.20;99.90
5621;DHT22;2832;50.864;12.186;2023-08-06T14:00:37;21.20;99.90
5621;DHT22;2832;50.864;12.186;2023-08-06T14:03:23;21.20;99.90
5621;DHT22;2832;50.864;12.186;2023-08-06T14:05:58;21.10;99.90
5621;DHT22;2832;50.864;12.186;2023-08-06T14:08:37;21.20;99.90
5621;DHT22;2832;50.864;12.186;2023-08-06T14:11:18;21.10;99.90
5621;DHT22;2832;50.864;12.186;2023-08-06T14:13:56;21.10;99.90
5621;DHT22;2832;50.864;12.186;2023-08-06T14:16:34;21.10;99.90
5621;DHT22;2832;50.864;12.186;2023-08-06T14:19:17;21.20;99.90
5621;DHT22;2832;50.864;12.186;2023-08-06T14:22:06;21.20;99.90
5621;DHT22;2832;50.864;12.186;2023-08-06T14:24:46;21.20;99.90
5621;DHT22;2832;50.864;12.186;2023-08-06T14:27:27;21.10;99.90
5621;DHT22;2832;50.864;12.186;2023-08-06T14:30:02;21.20;99.90
5621;DHT22;2832;50.864;12.186;2023-08-06T14:32:38;21.20;99.90
5621;DHT22;2832;50.864;12.186;2023-08-06T14:35:20;21.20;99.90
5621;DHT22;2832;50.864;12.186;2023-08-06T14:37:51;21.20;99.90
5621;DHT22;2832;50.864;12.186;2023-08-06T14:40:29;21.20;99.90
5621;DHT22;2832;50.864;12.186;2023-08-06T14:43:12;21.30;99.90
5621;DHT22;2832;50.864;12.186;2023-08-06T14:45:54;21.30;99.90
5621;DHT22;2832;50.864;12.186;2023-08-06T14:48:34;21.30;99.90
5621;DHT22;2832;50.864;12.186;2023-08-06T14:51:07;21.30;99.90
5621;DHT22;2832;50.864;12.186;2023-08-06T14:53:43;21.30;99.90
5621;DHT22;2832;50.864;12.186;2023-08-06T14:56:17;21.30;99.90
5621;DHT22;2832;50.864;12.186;2023-08-06T14:58:56;21.30;99.90
5621;DHT22;2832;50.864;12.186;2023-08-06T15:01:27;21.40;99.90
5621;DHT22;2832;50.864;12.186;2023-08-06T15:04:02;21.40;99.90
5621;DHT22;2832;50.864;12.186;2023-08-06T15:06:37;21.30;99.90
5621;DHT22;2832;50.864;12.186;2023-08-06T15:09:14;21.30;99.90
5621;DHT22;2832;50.864;12.186;2023-08-06T15:11:49;21.30;99.90
5621;DHT22;2832;50.864;12.186;2023-08-06T15:14:29;21.30;99.90
5621;DHT22;2832;50.864;12.186;2023-08-06T15:17:05;21.40;99.90
5621;DHT22;2832;50.864;12.186;2023-08-06T15:19:49;21.40;99.90
5621;DHT22;2832;50.864;12.186;2023-08-06T15:22:28;21.50;99.90
5621;DHT22;2832;50.864;12.186;2023-08-06T15:25:30;21.40;99.90
5621;DHT22;2832;50.864;12.186;2023-08-06T15:28:21;21.40;99.90
5621;DHT22;2832;50.864;12.186;2023-08-06T15:31:10;21.50;99.90
5621;DHT22;2832;50.864;12.186;2023-08-06T15:33:56;21.40;99.90
5621;DHT22;2832;50.864;12.186;2023-08-06T15:36:37;21.50;99.90
5621;DHT22;2832;50.864;12.186;2023-08-06T15:39:19;21.50;99.90
5621;DHT22;2832;50.864;12.186;2023-08-06T15:42:01;21.40;99.90
5621;DHT22;2832;50.864;12.186;2023-08-06T15:44:34;21.50;99.90
5621;DHT22;2832;50.864;12.186;2023-08-06T15:47:09;21.40;99.90
5621;DHT22;2832;50.864;12.186;2023-08-06T15:49:53;21.50;99.90
5621;DHT22;2832;50.864;12.186;2023-08-06T15:52:25;21.40;99.90
5621;DHT22;2832;50.864;12.186;2023-08-06T15:55:04;21.40;99.90
5621;DHT22;2832;50.864;12.186;2023-08-06T15:57:34;21.40;99.90
5621;DHT22;2832;50.864;12.186;2023-08-06T16:00:11;21.40;99.90
5621;DHT22;2832;50.864;12.186;2023-08-06T16:02:54;21.30;99.90
5621;DHT22;2832;50.864;12.186;2023-08-06T16:05:30;21.30;99.90
5621;DHT22;2832;50.864;12.186;2023-08-06T16:08:06;21.40;99.90
5621;DHT22;2832;50.864;12.186;2023-08-06T16:10:48;21.30;99.90
5621;DHT22;2832;50.864;12.186;2023-08-06T16:13:27;21.30;99.90
5621;DHT22;2832;50.864;12.186;2023-08-06T16:16:07;21.30;99.90
5621;DHT22;2832;50.864;12.186;2023-08-06T16:18:51;21.40;99.90
5621;DHT22;2832;50.864;12.186;2023-08-06T16:21:30;21.40;99.90
5621;DHT22;2832;50.864;12.186;2023-08-06T16:24:01;21.30;99.90
5621;DHT22;2832;50.864;12.186;2023-08-06T16:26:46;21.40;99.90
5621;DHT22;2832;50.864;12.186;2023-08-06T16:29:26;21.40;99.90
5621;DHT22;2832;50.864;12.186;2023-08-06T16:32:09;21.40;99.90
5621;DHT22;2832;50.864;12.186;2023-08-06T16:34:51;21.40;99.90
5621;DHT22;2832;50.864;12.186;2023-08-06T16:37:30;21.50;99.90
5621;DHT22;2832;50.864;12.186;2023-08-06T16:40:09;21.50;99.90
5621;DHT22;2832;50.864;12.186;2023-08-06T16:42:38;21.60;99.90
5621;DHT22;2832;50.864;12.186;2023-08-06T16:45:10;21.50;99.90
5621;DHT22;2832;50.864;12.186;2023-08-06T16:47:46;21.50;99.90
5621;DHT22;2832;50.864;12.186;2023-08-06T16:50:18;21.50;99.90